Accueil
METAR-TAF:

METAR-TAF

Aéroports :

Aéroport Rouen Vallée de Seine

Rouen, France

latitude: 49-23N, longitude: 001-11E, altitude: 157 m

Observation

Le bulletin a été fait il y a 11 minutes, à 12:00 UTC
Vent 6 kt de est/sud-est, variant entre est et sud
Température 5°C
Humidité 81%
Pression 1013 hPa
Visibilité: 9000 m
Quelques nuages à une hauteur de 1200 ft

METAR: LFOP 211200Z AUTO 11006KT 090V170 9000 FEW012 05/02 Q1013 NOSIG

Heure: 13:11 (12:11 UTC)

Prévision

Le bulletin a été fait il y a 1 heure et 11 minutes, à 11:00 UTC
Prévision valable du 21 à 12 UTC au 22 à 12 UTC
Vent 5 kt de est/sud-est
Visibilité: 8000 m
Evoluant progressivement
du 22 à 09 UTC au 22 à 11 UTC
Ciel couvert à une hauteur de 700 ft

TAF: LFOP 211100Z 2112/2212 11005KT 8000 NSC BECMG 2209/2211 OVC007

Observations et prévisions météorologiques de plus de 4000 aéroports (messages METAR et TAF).

Les stations disponibles sont représentées par des disques jaunes et rouges sur la carte.

Passer la souris dessus pour voir le nom de la station.

Cliquer dessus pour voir les observations et prévisions météorologiques.

Pour changer de carte: cliquez sur les boutons verts avec une croix noire pour zoomer, sur le bouton vert avec un tiret pour effectuer un zoom arrière, ou sur les flèches vertes pour les cartes adjacentes.


METAR-TAF: